sensor_id;sensor_type;location;lat;lon;timestamp;pressure;altitude;pressure_sealevel;temperature;humidity
56614;BME280;75854;35.670;139.690;2024-03-02T00:00:24;100801.98;;;8.59;21.81
56614;BME280;75854;35.670;139.690;2024-03-02T00:02:54;100791.05;;;9.09;21.44
56614;BME280;75854;35.670;139.690;2024-03-02T00:05:24;100797.29;;;8.83;21.11
56614;BME280;75854;35.670;139.690;2024-03-02T00:07:55;100803.15;;;8.59;21.49
56614;BME280;75854;35.670;139.690;2024-03-02T00:10:27;100803.86;;;8.62;21.43
56614;BME280;75854;35.670;139.690;2024-03-02T00:13:01;100799.42;;;8.97;21.45
56614;BME280;75854;35.670;139.690;2024-03-02T00:15:46;100824.29;;;8.62;22.29
56614;BME280;75854;35.670;139.690;2024-03-02T00:18:20;100815.63;;;9.08;20.66
56614;BME280;75854;35.670;139.690;2024-03-02T00:20:50;100806.08;;;9.05;21.20
56614;BME280;75854;35.670;139.690;2024-03-02T00:23:22;100814.12;;;8.87;21.73
56614;BME280;75854;35.670;139.690;2024-03-02T00:25:53;100817.48;;;8.92;21.21
56614;BME280;75854;35.670;139.690;2024-03-02T00:28:25;100799.63;;;9.62;21.82
56614;BME280;75854;35.670;139.690;2024-03-02T00:30:58;100811.70;;;9.68;21.19
56614;BME280;75854;35.670;139.690;2024-03-02T00:33:34;100809.68;;;8.48;20.15
56614;BME280;75854;35.670;139.690;2024-03-02T00:36:04;100799.61;;;8.59;20.72
56614;BME280;75854;35.670;139.690;2024-03-02T00:38:40;100800.61;;;8.91;20.75
56614;BME280;75854;35.670;139.690;2024-03-02T00:41:19;100801.55;;;9.40;20.77
56614;BME280;75854;35.670;139.690;2024-03-02T00:43:58;100803.03;;;9.71;20.77
56614;BME280;75854;35.670;139.690;2024-03-02T00:46:29;100807.98;;;9.36;20.55
56614;BME280;75854;35.670;139.690;2024-03-02T00:49:00;100803.11;;;9.37;20.66
56614;BME280;75854;35.670;139.690;2024-03-02T00:51:35;100807.14;;;8.97;20.63
56614;BME280;75854;35.670;139.690;2024-03-02T00:54:07;100801.78;;;9.07;20.63
56614;BME280;75854;35.670;139.690;2024-03-02T00:56:36;100800.94;;;9.20;20.18
56614;BME280;75854;35.670;139.690;2024-03-02T00:59:09;100797.64;;;8.80;20.52
56614;BME280;75854;35.670;139.690;2024-03-02T01:01:39;100794.84;;;9.40;21.03
56614;BME280;75854;35.670;139.690;2024-03-02T01:04:08;100790.65;;;9.40;20.03
56614;BME280;75854;35.670;139.690;2024-03-02T01:06:38;100793.48;;;9.59;20.24
56614;BME280;75854;35.670;139.690;2024-03-02T01:09:07;100796.24;;;9.41;20.92
56614;BME280;75854;35.670;139.690;2024-03-02T01:11:37;100790.16;;;9.77;19.88
56614;BME280;75854;35.670;139.690;2024-03-02T01:14:07;100791.26;;;9.37;20.53
56614;BME280;75854;35.670;139.690;2024-03-02T01:16:37;100784.68;;;9.50;20.42
56614;BME280;75854;35.670;139.690;2024-03-02T01:19:06;100799.55;;;9.05;21.60
56614;BME280;75854;35.670;139.690;2024-03-02T01:21:35;100800.83;;;9.23;20.63
56614;BME280;75854;35.670;139.690;2024-03-02T01:24:05;100798.31;;;9.88;20.97
56614;BME280;75854;35.670;139.690;2024-03-02T01:26:37;100792.64;;;9.33;20.02
56614;BME280;75854;35.670;139.690;2024-03-02T01:29:06;100800.76;;;9.94;20.11
56614;BME280;75854;35.670;139.690;2024-03-02T01:31:36;100796.62;;;9.71;20.64
56614;BME280;75854;35.670;139.690;2024-03-02T01:34:05;100805.48;;;9.89;20.39
56614;BME280;75854;35.670;139.690;2024-03-02T01:36:36;100794.68;;;9.88;20.39
56614;BME280;75854;35.670;139.690;2024-03-02T01:39:06;100789.19;;;9.69;20.13
56614;BME280;75854;35.670;139.690;2024-03-02T01:41:36;100788.77;;;9.74;20.38
56614;BME280;75854;35.670;139.690;2024-03-02T01:44:06;100792.45;;;9.12;20.36
56614;BME280;75854;35.670;139.690;2024-03-02T01:46:40;100795.20;;;9.70;20.34
56614;BME280;75854;35.670;139.690;2024-03-02T01:49:11;100796.63;;;9.80;20.98
56614;BME280;75854;35.670;139.690;2024-03-02T01:51:44;100805.46;;;8.00;21.48
56614;BME280;75854;35.670;139.690;2024-03-02T01:54:14;100817.34;;;9.05;20.68
56614;BME280;75854;35.670;139.690;2024-03-02T01:56:45;100813.28;;;9.17;21.07
56614;BME280;75854;35.670;139.690;2024-03-02T01:59:16;100806.56;;;9.67;20.08
56614;BME280;75854;35.670;139.690;2024-03-02T02:07:16;100806.50;;;9.30;20.25
56614;BME280;75854;35.670;139.690;2024-03-02T02:09:45;100799.97;;;9.75;19.61
56614;BME280;75854;35.670;139.690;2024-03-02T02:12:15;100793.25;;;10.27;19.42
56614;BME280;75854;35.670;139.690;2024-03-02T02:14:49;100787.47;;;9.34;19.86
56614;BME280;75854;35.670;139.690;2024-03-02T02:17:18;100785.04;;;9.96;19.89
56614;BME280;75854;35.670;139.690;2024-03-02T02:19:48;100800.95;;;9.88;20.51
56614;BME280;75854;35.670;139.690;2024-03-02T02:22:17;100794.20;;;10.01;19.55
56614;BME280;75854;35.670;139.690;2024-03-02T02:24:47;100784.69;;;9.77;20.37
56614;BME280;75854;35.670;139.690;2024-03-02T02:27:16;100788.53;;;9.35;20.18
56614;BME280;75854;35.670;139.690;2024-03-02T02:29:46;100797.42;;;9.17;20.22
56614;BME280;75854;35.670;139.690;2024-03-02T02:32:16;100787.77;;;9.52;20.45
56614;BME280;75854;35.670;139.690;2024-03-02T02:34:46;100787.71;;;10.22;20.17
56614;BME280;75854;35.670;139.690;2024-03-02T02:37:16;100803.89;;;10.49;19.29
56614;BME280;75854;35.670;139.690;2024-03-02T02:39:46;100807.31;;;10.15;19.14
56614;BME280;75854;35.670;139.690;2024-03-02T02:42:16;100792.65;;;9.66;20.12
56614;BME280;75854;35.670;139.690;2024-03-02T02:44:47;100789.77;;;10.21;18.71
56614;BME280;75854;35.670;139.690;2024-03-02T02:47:17;100782.51;;;10.60;19.19
56614;BME280;75854;35.670;139.690;2024-03-02T02:49:46;100786.24;;;10.65;19.60
56614;BME280;75854;35.670;139.690;2024-03-02T02:52:16;100790.25;;;11.02;18.46
56614;BME280;75854;35.670;139.690;2024-03-02T02:54:46;100776.44;;;10.23;20.01
56614;BME280;75854;35.670;139.690;2024-03-02T02:57:15;100775.63;;;10.83;19.58
56614;BME280;75854;35.670;139.690;2024-03-02T02:59:45;100767.59;;;11.12;19.06
56614;BME280;75854;35.670;139.690;2024-03-02T03:02:14;100758.74;;;10.79;18.92
56614;BME280;75854;35.670;139.690;2024-03-02T03:04:44;100756.77;;;10.15;18.95
56614;BME280;75854;35.670;139.690;2024-03-02T03:07:13;100754.05;;;10.25;18.80
56614;BME280;75854;35.670;139.690;2024-03-02T03:09:43;100751.08;;;10.23;19.52
56614;BME280;75854;35.670;139.690;2024-03-02T03:12:12;100744.57;;;10.35;19.19
56614;BME280;75854;35.670;139.690;2024-03-02T03:14:42;100745.38;;;10.61;19.14
56614;BME280;75854;35.670;139.690;2024-03-02T03:17:12;100740.96;;;10.58;19.34
56614;BME280;75854;35.670;139.690;2024-03-02T03:19:41;100748.13;;;10.79;18.38
56614;BME280;75854;35.670;139.690;2024-03-02T03:22:11;100743.39;;;10.94;18.90
56614;BME280;75854;35.670;139.690;2024-03-02T03:24:40;100745.99;;;10.63;18.31
56614;BME280;75854;35.670;139.690;2024-03-02T03:27:12;100741.27;;;10.77;19.05
56614;BME280;75854;35.670;139.690;2024-03-02T03:29:41;100736.88;;;10.56;18.64
56614;BME280;75854;35.670;139.690;2024-03-02T03:32:12;100734.84;;;10.59;19.04
56614;BME280;75854;35.670;139.690;2024-03-02T03:34:41;100737.51;;;11.03;19.21
56614;BME280;75854;35.670;139.690;2024-03-02T03:37:11;100739.02;;;10.85;18.85
56614;BME280;75854;35.670;139.690;2024-03-02T03:39:41;100737.84;;;11.05;18.59
56614;BME280;75854;35.670;139.690;2024-03-02T03:42:11;100739.82;;;11.01;19.29
56614;BME280;75854;35.670;139.690;2024-03-02T03:44:41;100739.66;;;10.25;18.49
56614;BME280;75854;35.670;139.690;2024-03-02T03:47:10;100737.49;;;10.97;18.30
56614;BME280;75854;35.670;139.690;2024-03-02T03:49:40;100726.23;;;11.02;18.85
56614;BME280;75854;35.670;139.690;2024-03-02T03:52:10;100724.81;;;11.29;19.26
56614;BME280;75854;35.670;139.690;2024-03-02T03:54:40;100726.52;;;11.41;19.03
56614;BME280;75854;35.670;139.690;2024-03-02T03:57:10;100726.05;;;11.03;18.06
56614;BME280;75854;35.670;139.690;2024-03-02T03:59:39;100722.30;;;11.11;18.46
56614;BME280;75854;35.670;139.690;2024-03-02T04:02:08;100720.10;;;11.21;18.05
56614;BME280;75854;35.670;139.690;2024-03-02T04:04:38;100717.76;;;11.11;17.88
56614;BME280;75854;35.670;139.690;2024-03-02T04:07:08;100722.23;;;11.05;19.27
56614;BME280;75854;35.670;139.690;2024-03-02T04:09:37;100718.29;;;11.07;18.60
56614;BME280;75854;35.670;139.690;2024-03-02T04:12:07;100715.53;;;11.00;19.58
56614;BME280;75854;35.670;139.690;2024-03-02T04:14:36;100714.23;;;10.94;18.94
56614;BME280;75854;35.670;139.690;2024-03-02T04:17:06;100713.63;;;11.24;19.29
56614;BME280;75854;35.670;139.690;2024-03-02T04:19:36;100714.92;;;11.46;18.49
56614;BME280;75854;35.670;139.690;2024-03-02T04:22:06;100719.12;;;11.40;18.95
56614;BME280;75854;35.670;139.690;2024-03-02T04:24:35;100712.57;;;11.54;19.54
56614;BME280;75854;35.670;139.690;2024-03-02T04:27:05;100712.27;;;11.78;19.88
56614;BME280;75854;35.670;139.690;2024-03-02T04:29:35;100716.47;;;11.65;19.05
56614;BME280;75854;35.670;139.690;2024-03-02T04:32:04;100714.70;;;11.82;18.57
56614;BME280;75854;35.670;139.690;2024-03-02T04:34:34;100718.59;;;11.51;19.69
56614;BME280;75854;35.670;139.690;2024-03-02T04:37:03;100719.11;;;11.64;18.72
56614;BME280;75854;35.670;139.690;2024-03-02T04:39:34;100715.48;;;11.62;19.23
56614;BME280;75854;35.670;139.690;2024-03-02T04:42:04;100717.78;;;11.47;20.09
56614;BME280;75854;35.670;139.690;2024-03-02T04:44:33;100718.31;;;11.51;19.95
56614;BME280;75854;35.670;139.690;2024-03-02T04:47:03;100715.00;;;11.66;19.71
56614;BME280;75854;35.670;139.690;2024-03-02T04:49:32;100715.37;;;11.61;19.89
56614;BME280;75854;35.670;139.690;2024-03-02T04:52:02;100718.12;;;11.82;19.78
56614;BME280;75854;35.670;139.690;2024-03-02T04:54:33;100720.45;;;11.57;20.83
56614;BME280;75854;35.670;139.690;2024-03-02T04:57:02;100722.14;;;11.70;19.54
56614;BME280;75854;35.670;139.690;2024-03-02T04:59:32;100731.96;;;11.63;19.78
56614;BME280;75854;35.670;139.690;2024-03-02T05:02:01;100733.79;;;11.65;20.39
56614;BME280;75854;35.670;139.690;2024-03-02T05:04:31;100737.60;;;11.35;18.42
56614;BME280;75854;35.670;139.690;2024-03-02T05:07:00;100736.44;;;11.17;19.41
56614;BME280;75854;35.670;139.690;2024-03-02T05:09:30;100740.89;;;11.36;19.16
56614;BME280;75854;35.670;139.690;2024-03-02T05:11:59;100744.49;;;11.68;19.35
56614;BME280;75854;35.670;139.690;2024-03-02T05:14:29;100748.52;;;10.89;20.26
56614;BME280;75854;35.670;139.690;2024-03-02T05:17:00;100752.80;;;11.59;20.44
56614;BME280;75854;35.670;139.690;2024-03-02T05:19:35;100747.93;;;11.42;20.49
56614;BME280;75854;35.670;139.690;2024-03-02T05:22:05;100741.75;;;11.81;20.01
56614;BME280;75854;35.670;139.690;2024-03-02T05:24:34;100735.61;;;11.48;21.10
56614;BME280;75854;35.670;139.690;2024-03-02T05:27:06;100735.39;;;11.97;20.03
56614;BME280;75854;35.670;139.690;2024-03-02T05:29:36;100741.90;;;11.62;20.22
56614;BME280;75854;35.670;139.690;2024-03-02T05:32:06;100749.33;;;11.57;20.17
56614;BME280;75854;35.670;139.690;2024-03-02T05:34:36;100748.42;;;11.88;20.30
56614;BME280;75854;35.670;139.690;2024-03-02T05:37:05;100743.73;;;12.06;19.89
56614;BME280;75854;35.670;139.690;2024-03-02T05:39:35;100746.21;;;11.84;20.53
56614;BME280;75854;35.670;139.690;2024-03-02T05:42:05;100741.60;;;11.49;21.21
56614;BME280;75854;35.670;139.690;2024-03-02T05:44:34;100740.88;;;11.69;21.17
56614;BME280;75854;35.670;139.690;2024-03-02T05:47:04;100740.36;;;11.37;20.70
56614;BME280;75854;35.670;139.690;2024-03-02T05:49:34;100739.40;;;11.87;20.24
56614;BME280;75854;35.670;139.690;2024-03-02T05:52:04;100741.25;;;11.79;20.07
56614;BME280;75854;35.670;139.690;2024-03-02T05:54:34;100748.32;;;11.87;21.01
56614;BME280;75854;35.670;139.690;2024-03-02T05:57:04;100749.82;;;12.11;21.20
56614;BME280;75854;35.670;139.690;2024-03-02T05:59:33;100750.57;;;11.37;20.71
56614;BME280;75854;35.670;139.690;2024-03-02T06:02:03;100755.64;;;11.54;21.42
56614;BME280;75854;35.670;139.690;2024-03-02T06:04:32;100758.37;;;12.06;20.27
56614;BME280;75854;35.670;139.690;2024-03-02T06:07:03;100757.01;;;11.66;20.19
56614;BME280;75854;35.670;139.690;2024-03-02T06:09:32;100755.73;;;11.64;19.44
56614;BME280;75854;35.670;139.690;2024-03-02T06:12:03;100759.22;;;11.40;18.86
56614;BME280;75854;35.670;139.690;2024-03-02T06:14:32;100760.28;;;11.79;19.91
56614;BME280;75854;35.670;139.690;2024-03-02T06:17:02;100764.57;;;11.83;19.80
56614;BME280;75854;35.670;139.690;2024-03-02T06:19:31;100768.42;;;11.47;17.71
56614;BME280;75854;35.670;139.690;2024-03-02T06:22:01;100771.28;;;11.85;18.40
56614;BME280;75854;35.670;139.690;2024-03-02T06:24:31;100764.54;;;10.91;19.27
56614;BME280;75854;35.670;139.690;2024-03-02T06:27:00;100765.79;;;11.69;18.90
56614;BME280;75854;35.670;139.690;2024-03-02T06:29:32;100765.48;;;11.64;17.92
56614;BME280;75854;35.670;139.690;2024-03-02T06:32:02;100762.59;;;11.18;18.10
56614;BME280;75854;35.670;139.690;2024-03-02T06:34:32;100754.89;;;11.08;17.99
56614;BME280;75854;35.670;139.690;2024-03-02T06:37:01;100755.36;;;11.52;19.43
56614;BME280;75854;35.670;139.690;2024-03-02T06:39:31;100760.95;;;11.71;19.11
56614;BME280;75854;35.670;139.690;2024-03-02T06:42:01;100765.87;;;11.51;19.76
56614;BME280;75854;35.670;139.690;2024-03-02T06:44:30;100762.24;;;11.64;19.71
56614;BME280;75854;35.670;139.690;2024-03-02T06:47:01;100763.06;;;11.82;19.60
56614;BME280;75854;35.670;139.690;2024-03-02T06:49:31;100763.59;;;11.78;19.45
56614;BME280;75854;35.670;139.690;2024-03-02T06:52:01;100762.26;;;11.77;20.19
56614;BME280;75854;35.670;139.690;2024-03-02T06:54:30;100767.34;;;11.79;20.21
56614;BME280;75854;35.670;139.690;2024-03-02T06:57:01;100770.17;;;11.68;20.97
56614;BME280;75854;35.670;139.690;2024-03-02T06:59:34;100769.85;;;11.59;21.18
56614;BME280;75854;35.670;139.690;2024-03-02T07:02:03;100767.82;;;11.75;20.71
56614;BME280;75854;35.670;139.690;2024-03-02T07:04:32;100760.81;;;11.89;19.57
56614;BME280;75854;35.670;139.690;2024-03-02T07:07:02;100765.27;;;11.78;19.63
56614;BME280;75854;35.670;139.690;2024-03-02T07:09:32;100773.13;;;11.78;20.51
56614;BME280;75854;35.670;139.690;2024-03-02T07:12:02;100776.62;;;11.83;19.56
56614;BME280;75854;35.670;139.690;2024-03-02T07:14:32;100778.90;;;11.49;20.23
56614;BME280;75854;35.670;139.690;2024-03-02T07:17:01;100784.65;;;11.76;19.90
56614;BME280;75854;35.670;139.690;2024-03-02T07:19:31;100784.07;;;11.70;19.75
56614;BME280;75854;35.670;139.690;2024-03-02T07:22:00;100788.67;;;11.63;20.37
56614;BME280;75854;35.670;139.690;2024-03-02T07:24:30;100791.29;;;11.56;19.75
56614;BME280;75854;35.670;139.690;2024-03-02T07:26:59;100793.93;;;11.48;20.57
56614;BME280;75854;35.670;139.690;2024-03-02T07:29:29;100800.95;;;11.72;20.83
56614;BME280;75854;35.670;139.690;2024-03-02T07:32:04;100808.20;;;11.61;20.27
56614;BME280;75854;35.670;139.690;2024-03-02T07:34:34;100816.86;;;11.35;19.76
56614;BME280;75854;35.670;139.690;2024-03-02T07:37:04;100818.27;;;11.65;20.07
56614;BME280;75854;35.670;139.690;2024-03-02T07:39:33;100825.13;;;11.53;20.23
56614;BME280;75854;35.670;139.690;2024-03-02T07:42:03;100828.77;;;11.40;20.10
56614;BME280;75854;35.670;139.690;2024-03-02T07:44:32;100835.83;;;11.47;19.55
56614;BME280;75854;35.670;139.690;2024-03-02T07:47:02;100838.66;;;11.33;20.52
56614;BME280;75854;35.670;139.690;2024-03-02T07:49:31;100841.55;;;11.55;20.34
56614;BME280;75854;35.670;139.690;2024-03-02T07:52:01;100844.27;;;11.51;20.93
56614;BME280;75854;35.670;139.690;2024-03-02T07:54:31;100847.11;;;11.27;20.16
56614;BME280;75854;35.670;139.690;2024-03-02T07:57:01;100849.39;;;11.39;20.09
56614;BME280;75854;35.670;139.690;2024-03-02T07:59:30;100855.76;;;11.34;19.99
56614;BME280;75854;35.670;139.690;2024-03-02T08:02:00;100858.28;;;11.44;20.82
56614;BME280;75854;35.670;139.690;2024-03-02T08:04:30;100863.33;;;11.02;20.33
56614;BME280;75854;35.670;139.690;2024-03-02T08:06:59;100862.17;;;11.40;20.55
56614;BME280;75854;35.670;139.690;2024-03-02T08:09:29;100864.51;;;11.42;20.63
56614;BME280;75854;35.670;139.690;2024-03-02T08:11:58;100868.00;;;11.40;21.14
56614;BME280;75854;35.670;139.690;2024-03-02T08:14:28;100869.14;;;11.47;22.20
56614;BME280;75854;35.670;139.690;2024-03-02T08:16:58;100865.71;;;11.29;20.53
56614;BME280;75854;35.670;139.690;2024-03-02T08:19:27;100867.80;;;11.27;20.12
56614;BME280;75854;35.670;139.690;2024-03-02T08:21:57;100866.43;;;11.53;19.40
56614;BME280;75854;35.670;139.690;2024-03-02T08:24:26;100864.21;;;11.36;20.21
56614;BME280;75854;35.670;139.690;2024-03-02T08:26:57;100868.43;;;11.24;21.30
56614;BME280;75854;35.670;139.690;2024-03-02T08:29:27;100866.01;;;11.26;20.48
56614;BME280;75854;35.670;139.690;2024-03-02T08:31:57;100873.43;;;11.01;19.63
56614;BME280;75854;35.670;139.690;2024-03-02T08:34:31;100874.95;;;10.99;19.85
56614;BME280;75854;35.670;139.690;2024-03-02T08:37:01;100880.42;;;11.15;20.82
56614;BME280;75854;35.670;139.690;2024-03-02T08:39:30;100888.23;;;11.32;21.32
56614;BME280;75854;35.670;139.690;2024-03-02T08:42:00;100892.41;;;11.27;20.72
56614;BME280;75854;35.670;139.690;2024-03-02T08:44:31;100891.14;;;11.24;21.03
56614;BME280;75854;35.670;139.690;2024-03-02T08:47:00;100896.91;;;11.47;20.14
56614;BME280;75854;35.670;139.690;2024-03-02T08:49:29;100898.00;;;11.19;19.41
56614;BME280;75854;35.670;139.690;2024-03-02T08:52:00;100895.24;;;11.32;19.64
56614;BME280;75854;35.670;139.690;2024-03-02T08:54:49;100900.81;;;11.52;20.14
56614;BME280;75854;35.670;139.690;2024-03-02T08:57:26;100902.81;;;11.44;21.01
56614;BME280;75854;35.670;139.690;2024-03-02T09:00:02;100900.47;;;11.07;19.73
56614;BME280;75854;35.670;139.690;2024-03-02T09:02:40;100899.67;;;10.98;19.74
56614;BME280;75854;35.670;139.690;2024-03-02T09:05:26;100893.53;;;11.15;20.28
56614;BME280;75854;35.670;139.690;2024-03-02T09:08:01;100896.12;;;10.90;20.63
56614;BME280;75854;35.670;139.690;2024-03-02T09:10:32;100895.34;;;11.13;21.19
56614;BME280;75854;35.670;139.690;2024-03-02T09:13:07;100903.08;;;11.45;20.89
56614;BME280;75854;35.670;139.690;2024-03-02T09:15:38;100905.86;;;11.18;20.43
56614;BME280;75854;35.670;139.690;2024-03-02T09:18:08;100908.39;;;11.38;20.50
56614;BME280;75854;35.670;139.690;2024-03-02T09:20:38;100912.03;;;11.06;20.68
56614;BME280;75854;35.670;139.690;2024-03-02T09:23:12;100917.48;;;11.25;20.18
56614;BME280;75854;35.670;139.690;2024-03-02T09:25:42;100923.64;;;11.16;20.36
56614;BME280;75854;35.670;139.690;2024-03-02T09:28:12;100930.62;;;11.22;20.34
56614;BME280;75854;35.670;139.690;2024-03-02T09:30:41;100934.17;;;11.29;20.16
56614;BME280;75854;35.670;139.690;2024-03-02T09:33:12;100939.85;;;11.35;20.78
56614;BME280;75854;35.670;139.690;2024-03-02T09:35:41;100946.42;;;10.99;19.30
56614;BME280;75854;35.670;139.690;2024-03-02T09:38:11;100947.65;;;11.21;20.53
56614;BME280;75854;35.670;139.690;2024-03-02T09:40:42;100947.72;;;11.10;19.82
56614;BME280;75854;35.670;139.690;2024-03-02T09:43:17;100947.58;;;11.24;20.17
56614;BME280;75854;35.670;139.690;2024-03-02T09:45:47;100950.05;;;11.02;19.91
56614;BME280;75854;35.670;139.690;2024-03-02T09:48:16;100951.75;;;11.19;19.75
56614;BME280;75854;35.670;139.690;2024-03-02T09:50:46;100957.22;;;11.10;20.07
56614;BME280;75854;35.670;139.690;2024-03-02T09:53:16;100966.02;;;10.87;20.04
56614;BME280;75854;35.670;139.690;2024-03-02T09:55:48;100968.28;;;10.84;19.72
56614;BME280;75854;35.670;139.690;2024-03-02T09:58:18;100966.52;;;10.90;19.83
56614;BME280;75854;35.670;139.690;2024-03-02T10:00:47;100967.48;;;11.24;20.10
56614;BME280;75854;35.670;139.690;2024-03-02T10:03:17;100969.88;;;11.12;19.55
56614;BME280;75854;35.670;139.690;2024-03-02T10:05:47;100974.46;;;10.94;19.86
56614;BME280;75854;35.670;139.690;2024-03-02T10:08:17;100974.21;;;11.02;20.31
56614;BME280;75854;35.670;139.690;2024-03-02T10:10:46;100971.84;;;11.28;20.41
56614;BME280;75854;35.670;139.690;2024-03-02T10:13:16;100975.71;;;11.11;20.31
56614;BME280;75854;35.670;139.690;2024-03-02T10:15:46;100976.71;;;10.92;20.01
56614;BME280;75854;35.670;139.690;2024-03-02T10:18:15;100977.85;;;11.35;19.80
56614;BME280;75854;35.670;139.690;2024-03-02T10:20:56;100970.11;;;10.71;19.96
56614;BME280;75854;35.670;139.690;2024-03-02T10:23:43;100974.29;;;11.01;20.41
56614;BME280;75854;35.670;139.690;2024-03-02T10:26:17;100970.93;;;11.02;19.76
56614;BME280;75854;35.670;139.690;2024-03-02T10:28:48;100977.37;;;11.17;19.90
56614;BME280;75854;35.670;139.690;2024-03-02T10:31:17;100981.56;;;10.85;20.25
56614;BME280;75854;35.670;139.690;2024-03-02T10:33:47;100983.91;;;10.68;20.31
56614;BME280;75854;35.670;139.690;2024-03-02T10:36:17;100984.78;;;10.59;19.68
56614;BME280;75854;35.670;139.690;2024-03-02T10:38:46;100985.15;;;10.86;20.06
56614;BME280;75854;35.670;139.690;2024-03-02T10:41:18;100991.45;;;10.75;20.52
56614;BME280;75854;35.670;139.690;2024-03-02T10:43:49;101001.26;;;11.03;20.36
56614;BME280;75854;35.670;139.690;2024-03-02T10:46:21;101006.76;;;10.19;20.07
56614;BME280;75854;35.670;139.690;2024-03-02T10:48:52;101008.21;;;10.19;20.01
56614;BME280;75854;35.670;139.690;2024-03-02T10:51:21;101009.41;;;10.25;19.46
56614;BME280;75854;35.670;139.690;2024-03-02T10:53:51;101007.70;;;10.27;19.43
56614;BME280;75854;35.670;139.690;2024-03-02T10:56:30;101013.74;;;10.31;19.56
56614;BME280;75854;35.670;139.690;2024-03-02T10:59:17;101017.36;;;10.25;19.67
56614;BME280;75854;35.670;139.690;2024-03-02T11:01:53;101013.68;;;10.14;19.15
56614;BME280;75854;35.670;139.690;2024-03-02T11:04:26;101011.05;;;10.13;19.07
56614;BME280;75854;35.670;139.690;2024-03-02T11:07:02;101019.72;;;10.18;18.88
56614;BME280;75854;35.670;139.690;2024-03-02T11:09:34;101021.56;;;10.26;19.05
56614;BME280;75854;35.670;139.690;2024-03-02T11:12:12;101025.58;;;10.39;19.32
56614;BME280;75854;35.670;139.690;2024-03-02T11:14:42;101034.11;;;10.01;18.71
56614;BME280;75854;35.670;139.690;2024-03-02T11:17:14;101025.92;;;10.36;18.34
56614;BME280;75854;35.670;139.690;2024-03-02T11:19:45;101032.21;;;9.90;18.91
56614;BME280;75854;35.670;139.690;2024-03-02T11:22:16;101032.48;;;10.24;19.82
56614;BME280;75854;35.670;139.690;2024-03-02T11:24:50;101035.62;;;10.11;18.36
56614;BME280;75854;35.670;139.690;2024-03-02T11:28:03;101037.86;;;9.64;19.03
56614;BME280;75854;35.670;139.690;2024-03-02T11:31:05;101036.78;;;9.65;18.17
56614;BME280;75854;35.670;139.690;2024-03-02T11:33:35;101040.10;;;10.23;19.40
56614;BME280;75854;35.670;139.690;2024-03-02T11:36:07;101044.77;;;9.37;19.45
56614;BME280;75854;35.670;139.690;2024-03-02T11:38:37;101045.84;;;9.40;19.44
56614;BME280;75854;35.670;139.690;2024-03-02T11:41:08;101049.27;;;9.60;18.79
56614;BME280;75854;35.670;139.690;2024-03-02T11:43:39;101054.99;;;9.85;19.67
56614;BME280;75854;35.670;139.690;2024-03-02T11:46:09;101057.79;;;9.99;19.25
56614;BME280;75854;35.670;139.690;2024-03-02T11:48:40;101055.27;;;9.47;19.39
56614;BME280;75854;35.670;139.690;2024-03-02T11:51:10;101053.70;;;8.97;19.69
56614;BME280;75854;35.670;139.690;2024-03-02T11:53:41;101064.15;;;8.44;20.33
56614;BME280;75854;35.670;139.690;2024-03-02T11:56:11;101069.86;;;8.05;20.69
56614;BME280;75854;35.670;139.690;2024-03-02T11:58:41;101070.33;;;7.64;20.94
56614;BME280;75854;35.670;139.690;2024-03-02T12:01:12;101071.05;;;7.72;20.88
56614;BME280;75854;35.670;139.690;2024-03-02T12:03:42;101072.82;;;7.61;20.98
56614;BME280;75854;35.670;139.690;2024-03-02T12:06:12;101076.82;;;7.69;21.19
56614;BME280;75854;35.670;139.690;2024-03-02T12:08:42;101079.25;;;7.44;21.46
56614;BME280;75854;35.670;139.690;2024-03-02T12:11:14;101076.49;;;7.55;21.51
56614;BME280;75854;35.670;139.690;2024-03-02T12:13:53;101080.35;;;7.28;21.68
56614;BME280;75854;35.670;139.690;2024-03-02T12:16:25;101086.93;;;7.35;21.61
56614;BME280;75854;35.670;139.690;2024-03-02T12:18:55;101093.86;;;7.33;21.77
56614;BME280;75854;35.670;139.690;2024-03-02T12:21:25;101095.71;;;7.33;21.93
56614;BME280;75854;35.670;139.690;2024-03-02T12:23:55;101093.74;;;7.23;21.95
56614;BME280;75854;35.670;139.690;2024-03-02T12:26:25;101093.45;;;7.14;21.88
56614;BME280;75854;35.670;139.690;2024-03-02T12:28:54;101094.59;;;7.33;22.02
56614;BME280;75854;35.670;139.690;2024-03-02T12:31:25;101100.44;;;7.17;21.63
56614;BME280;75854;35.670;139.690;2024-03-02T12:33:55;101103.07;;;6.85;21.69
56614;BME280;75854;35.670;139.690;2024-03-02T12:36:25;101100.19;;;6.95;22.00
56614;BME280;75854;35.670;139.690;2024-03-02T12:38:55;101099.69;;;7.01;21.61
56614;BME280;75854;35.670;139.690;2024-03-02T12:41:24;101099.38;;;6.77;21.61
56614;BME280;75854;35.670;139.690;2024-03-02T12:43:55;101097.50;;;6.91;22.10
56614;BME280;75854;35.670;139.690;2024-03-02T12:46:26;101103.40;;;6.74;21.95
56614;BME280;75854;35.670;139.690;2024-03-02T12:49:04;101101.89;;;6.72;21.73
56614;BME280;75854;35.670;139.690;2024-03-02T12:51:37;101105.27;;;6.88;21.69
56614;BME280;75854;35.670;139.690;2024-03-02T12:54:08;101106.80;;;6.50;21.82
56614;BME280;75854;35.670;139.690;2024-03-02T12:56:40;101110.70;;;6.67;21.81